sensor_id;sensor_type;location;lat;lon;timestamp;P1;durP1;ratioP1;P2;durP2;ratioP2
43150;SDS011;28755;51.478;5.702;2023-06-24T00:00:55;24.23;;;19.30;;
43150;SDS011;28755;51.478;5.702;2023-06-24T00:03:21;22.63;;;18.65;;
43150;SDS011;28755;51.478;5.702;2023-06-24T00:05:46;24.30;;;18.65;;
43150;SDS011;28755;51.478;5.702;2023-06-24T00:08:15;23.48;;;18.08;;
43150;SDS011;28755;51.478;5.702;2023-06-24T00:10:44;23.85;;;17.70;;
43150;SDS011;28755;51.478;5.702;2023-06-24T00:13:11;23.75;;;18.58;;
43150;SDS011;28755;51.478;5.702;2023-06-24T00:15:37;22.38;;;17.98;;
43150;SDS011;28755;51.478;5.702;2023-06-24T00:18:07;21.67;;;19.13;;
43150;SDS011;28755;51.478;5.702;2023-06-24T00:20:36;22.92;;;18.60;;
43150;SDS011;28755;51.478;5.702;2023-06-24T00:23:02;23.58;;;18.50;;
43150;SDS011;28755;51.478;5.702;2023-06-24T00:25:28;24.95;;;18.98;;
43150;SDS011;28755;51.478;5.702;2023-06-24T00:27:54;24.40;;;19.33;;
43150;SDS011;28755;51.478;5.702;2023-06-24T00:30:20;26.60;;;19.08;;
43150;SDS011;28755;51.478;5.702;2023-06-24T00:32:46;25.77;;;18.83;;
43150;SDS011;28755;51.478;5.702;2023-06-24T00:35:12;21.58;;;18.65;;
43150;SDS011;28755;51.478;5.702;2023-06-24T00:37:38;22.52;;;19.35;;
43150;SDS011;28755;51.478;5.702;2023-06-24T00:40:04;25.02;;;19.15;;
43150;SDS011;28755;51.478;5.702;2023-06-24T00:42:30;25.55;;;19.60;;
43150;SDS011;28755;51.478;5.702;2023-06-24T00:44:57;24.10;;;20.98;;
43150;SDS011;28755;51.478;5.702;2023-06-24T00:47:22;28.77;;;22.50;;
43150;SDS011;28755;51.478;5.702;2023-06-24T00:49:48;27.25;;;22.00;;
43150;SDS011;28755;51.478;5.702;2023-06-24T00:52:14;32.40;;;22.13;;
43150;SDS011;28755;51.478;5.702;2023-06-24T00:54:40;27.85;;;21.88;;
43150;SDS011;28755;51.478;5.702;2023-06-24T00:57:09;25.45;;;21.50;;
43150;SDS011;28755;51.478;5.702;2023-06-24T00:59:35;27.77;;;22.30;;
43150;SDS011;28755;51.478;5.702;2023-06-24T01:02:02;28.88;;;22.98;;
43150;SDS011;28755;51.478;5.702;2023-06-24T01:04:29;27.50;;;22.38;;
43150;SDS011;28755;51.478;5.702;2023-06-24T01:06:56;28.15;;;22.20;;
43150;SDS011;28755;51.478;5.702;2023-06-24T01:09:22;27.92;;;23.42;;
43150;SDS011;28755;51.478;5.702;2023-06-24T01:11:49;31.42;;;21.20;;
43150;SDS011;28755;51.478;5.702;2023-06-24T01:14:14;23.02;;;19.77;;
43150;SDS011;28755;51.478;5.702;2023-06-24T01:22:08;25.38;;;21.15;;
43150;SDS011;28755;51.478;5.702;2023-06-24T01:24:59;23.83;;;19.67;;
43150;SDS011;28755;51.478;5.702;2023-06-24T01:27:47;25.85;;;21.17;;
43150;SDS011;28755;51.478;5.702;2023-06-24T01:33:07;23.85;;;21.05;;
43150;SDS011;28755;51.478;5.702;2023-06-24T01:35:37;25.38;;;20.85;;
43150;SDS011;28755;51.478;5.702;2023-06-24T01:38:15;28.33;;;21.42;;
43150;SDS011;28755;51.478;5.702;2023-06-24T01:40:47;27.52;;;20.88;;
43150;SDS011;28755;51.478;5.702;2023-06-24T01:43:15;24.02;;;20.77;;
43150;SDS011;28755;51.478;5.702;2023-06-24T01:45:42;29.83;;;21.33;;
43150;SDS011;28755;51.478;5.702;2023-06-24T01:48:13;24.00;;;20.95;;
43150;SDS011;28755;51.478;5.702;2023-06-24T01:50:44;24.98;;;21.48;;
43150;SDS011;28755;51.478;5.702;2023-06-24T01:53:15;26.13;;;21.58;;
43150;SDS011;28755;51.478;5.702;2023-06-24T01:55:43;29.95;;;23.08;;
43150;SDS011;28755;51.478;5.702;2023-06-24T01:58:11;25.17;;;21.63;;
43150;SDS011;28755;51.478;5.702;2023-06-24T02:00:39;24.10;;;21.45;;
43150;SDS011;28755;51.478;5.702;2023-06-24T02:03:05;25.50;;;22.23;;
43150;SDS011;28755;51.478;5.702;2023-06-24T02:05:32;27.67;;;22.40;;
43150;SDS011;28755;51.478;5.702;2023-06-24T02:07:59;26.67;;;22.13;;
43150;SDS011;28755;51.478;5.702;2023-06-24T02:10:27;25.50;;;22.55;;
43150;SDS011;28755;51.478;5.702;2023-06-24T02:12:54;27.70;;;22.10;;
43150;SDS011;28755;51.478;5.702;2023-06-24T02:15:20;26.65;;;21.55;;
43150;SDS011;28755;51.478;5.702;2023-06-24T02:17:48;29.15;;;22.50;;
43150;SDS011;28755;51.478;5.702;2023-06-24T02:20:16;25.90;;;21.75;;
43150;SDS011;28755;51.478;5.702;2023-06-24T02:22:42;29.73;;;22.65;;
43150;SDS011;28755;51.478;5.702;2023-06-24T02:25:09;29.38;;;21.77;;
43150;SDS011;28755;51.478;5.702;2023-06-24T02:27:35;27.80;;;22.55;;
43150;SDS011;28755;51.478;5.702;2023-06-24T02:30:02;29.40;;;22.08;;
43150;SDS011;28755;51.478;5.702;2023-06-24T02:32:29;28.98;;;21.95;;
43150;SDS011;28755;51.478;5.702;2023-06-24T02:34:56;29.70;;;21.25;;
43150;SDS011;28755;51.478;5.702;2023-06-24T02:37:24;28.05;;;20.65;;
43150;SDS011;28755;51.478;5.702;2023-06-24T02:39:49;23.77;;;20.48;;
43150;SDS011;28755;51.478;5.702;2023-06-24T02:42:15;24.73;;;19.25;;
43150;SDS011;28755;51.478;5.702;2023-06-24T02:44:41;22.63;;;18.90;;
43150;SDS011;28755;51.478;5.702;2023-06-24T02:47:07;23.05;;;18.67;;
43150;SDS011;28755;51.478;5.702;2023-06-24T02:49:36;24.95;;;18.65;;
43150;SDS011;28755;51.478;5.702;2023-06-24T02:52:03;25.35;;;19.00;;
43150;SDS011;28755;51.478;5.702;2023-06-24T02:54:29;23.08;;;19.08;;
43150;SDS011;28755;51.478;5.702;2023-06-24T02:56:55;20.77;;;17.48;;
43150;SDS011;28755;51.478;5.702;2023-06-24T02:59:23;22.02;;;17.70;;
43150;SDS011;28755;51.478;5.702;2023-06-24T03:01:49;20.92;;;17.42;;
43150;SDS011;28755;51.478;5.702;2023-06-24T03:04:16;23.08;;;17.95;;
43150;SDS011;28755;51.478;5.702;2023-06-24T03:06:43;22.20;;;16.77;;
43150;SDS011;28755;51.478;5.702;2023-06-24T03:09:10;19.77;;;16.73;;
43150;SDS011;28755;51.478;5.702;2023-06-24T03:11:42;23.20;;;17.15;;
43150;SDS011;28755;51.478;5.702;2023-06-24T03:14:08;22.50;;;16.90;;
43150;SDS011;28755;51.478;5.702;2023-06-24T03:16:35;20.67;;;16.83;;
43150;SDS011;28755;51.478;5.702;2023-06-24T03:19:00;21.98;;;17.45;;
43150;SDS011;28755;51.478;5.702;2023-06-24T03:21:26;24.30;;;18.05;;
43150;SDS011;28755;51.478;5.702;2023-06-24T03:23:53;23.55;;;17.63;;
43150;SDS011;28755;51.478;5.702;2023-06-24T03:26:19;23.40;;;17.38;;
43150;SDS011;28755;51.478;5.702;2023-06-24T03:28:45;19.83;;;16.95;;
43150;SDS011;28755;51.478;5.702;2023-06-24T03:31:11;19.63;;;16.50;;
43150;SDS011;28755;51.478;5.702;2023-06-24T03:33:36;21.70;;;16.80;;
43150;SDS011;28755;51.478;5.702;2023-06-24T03:36:02;22.23;;;16.85;;
43150;SDS011;28755;51.478;5.702;2023-06-24T03:38:28;21.02;;;16.90;;
43150;SDS011;28755;51.478;5.702;2023-06-24T03:40:54;20.38;;;16.25;;
43150;SDS011;28755;51.478;5.702;2023-06-24T03:43:19;23.58;;;17.27;;
43150;SDS011;28755;51.478;5.702;2023-06-24T03:45:45;23.10;;;17.13;;
43150;SDS011;28755;51.478;5.702;2023-06-24T03:48:10;23.10;;;16.30;;
43150;SDS011;28755;51.478;5.702;2023-06-24T03:50:36;24.13;;;19.17;;
43150;SDS011;28755;51.478;5.702;2023-06-24T03:53:02;22.05;;;17.55;;
43150;SDS011;28755;51.478;5.702;2023-06-24T03:55:29;22.00;;;18.17;;
43150;SDS011;28755;51.478;5.702;2023-06-24T03:57:54;22.40;;;18.17;;
43150;SDS011;28755;51.478;5.702;2023-06-24T04:00:20;23.17;;;18.15;;
43150;SDS011;28755;51.478;5.702;2023-06-24T04:02:46;23.48;;;17.70;;
43150;SDS011;28755;51.478;5.702;2023-06-24T04:05:12;19.90;;;16.33;;
43150;SDS011;28755;51.478;5.702;2023-06-24T04:07:38;21.00;;;16.88;;
43150;SDS011;28755;51.478;5.702;2023-06-24T04:10:04;24.08;;;16.65;;
43150;SDS011;28755;51.478;5.702;2023-06-24T04:12:36;19.80;;;16.43;;
43150;SDS011;28755;51.478;5.702;2023-06-24T04:15:02;20.15;;;15.00;;
43150;SDS011;28755;51.478;5.702;2023-06-24T04:17:28;18.83;;;15.55;;
43150;SDS011;28755;51.478;5.702;2023-06-24T04:19:54;16.13;;;13.38;;
43150;SDS011;28755;51.478;5.702;2023-06-24T04:22:20;15.57;;;13.52;;
43150;SDS011;28755;51.478;5.702;2023-06-24T04:24:45;15.68;;;13.23;;
43150;SDS011;28755;51.478;5.702;2023-06-24T04:27:11;15.90;;;11.88;;
43150;SDS011;28755;51.478;5.702;2023-06-24T04:29:37;17.80;;;12.52;;
43150;SDS011;28755;51.478;5.702;2023-06-24T04:32:02;18.45;;;12.35;;
43150;SDS011;28755;51.478;5.702;2023-06-24T04:34:28;18.13;;;13.50;;
43150;SDS011;28755;51.478;5.702;2023-06-24T04:36:54;17.02;;;12.90;;
43150;SDS011;28755;51.478;5.702;2023-06-24T04:39:19;15.50;;;12.32;;
43150;SDS011;28755;51.478;5.702;2023-06-24T04:41:45;17.50;;;11.80;;
43150;SDS011;28755;51.478;5.702;2023-06-24T04:44:11;15.18;;;11.23;;
43150;SDS011;28755;51.478;5.702;2023-06-24T04:46:38;14.23;;;11.75;;
43150;SDS011;28755;51.478;5.702;2023-06-24T04:49:05;14.40;;;11.95;;
43150;SDS011;28755;51.478;5.702;2023-06-24T04:51:31;15.00;;;11.35;;
43150;SDS011;28755;51.478;5.702;2023-06-24T04:53:57;15.43;;;11.50;;
43150;SDS011;28755;51.478;5.702;2023-06-24T04:56:22;15.85;;;11.25;;
43150;SDS011;28755;51.478;5.702;2023-06-24T04:58:48;12.52;;;10.55;;
43150;SDS011;28755;51.478;5.702;2023-06-24T05:01:14;11.75;;;9.90;;
43150;SDS011;28755;51.478;5.702;2023-06-24T05:03:39;14.98;;;10.30;;
43150;SDS011;28755;51.478;5.702;2023-06-24T05:06:05;15.38;;;10.45;;
43150;SDS011;28755;51.478;5.702;2023-06-24T05:08:30;12.52;;;9.57;;
43150;SDS011;28755;51.478;5.702;2023-06-24T05:10:56;16.48;;;9.60;;
43150;SDS011;28755;51.478;5.702;2023-06-24T05:13:21;16.90;;;10.85;;
43150;SDS011;28755;51.478;5.702;2023-06-24T05:15:47;16.50;;;10.00;;
43150;SDS011;28755;51.478;5.702;2023-06-24T05:18:13;11.88;;;9.52;;
43150;SDS011;28755;51.478;5.702;2023-06-24T05:20:39;14.30;;;10.05;;
43150;SDS011;28755;51.478;5.702;2023-06-24T05:23:04;14.30;;;9.30;;
43150;SDS011;28755;51.478;5.702;2023-06-24T05:25:30;14.50;;;9.30;;
43150;SDS011;28755;51.478;5.702;2023-06-24T05:27:55;16.80;;;9.20;;
43150;SDS011;28755;51.478;5.702;2023-06-24T05:30:21;12.95;;;9.23;;
43150;SDS011;28755;51.478;5.702;2023-06-24T05:32:46;12.30;;;8.88;;
43150;SDS011;28755;51.478;5.702;2023-06-24T05:35:12;14.32;;;10.50;;
43150;SDS011;28755;51.478;5.702;2023-06-24T05:37:37;13.35;;;10.18;;
43150;SDS011;28755;51.478;5.702;2023-06-24T05:40:03;16.73;;;10.32;;
43150;SDS011;28755;51.478;5.702;2023-06-24T05:42:30;12.88;;;9.68;;
43150;SDS011;28755;51.478;5.702;2023-06-24T05:44:55;13.82;;;10.82;;
43150;SDS011;28755;51.478;5.702;2023-06-24T05:47:21;17.27;;;11.40;;
43150;SDS011;28755;51.478;5.702;2023-06-24T05:49:46;17.25;;;11.50;;
43150;SDS011;28755;51.478;5.702;2023-06-24T05:52:12;17.48;;;11.98;;
43150;SDS011;28755;51.478;5.702;2023-06-24T05:54:37;16.38;;;11.43;;
43150;SDS011;28755;51.478;5.702;2023-06-24T05:57:03;12.98;;;11.07;;
43150;SDS011;28755;51.478;5.702;2023-06-24T05:59:32;15.45;;;11.35;;
43150;SDS011;28755;51.478;5.702;2023-06-24T06:01:58;22.35;;;11.70;;
43150;SDS011;28755;51.478;5.702;2023-06-24T06:04:24;14.13;;;10.65;;
43150;SDS011;28755;51.478;5.702;2023-06-24T06:06:49;16.35;;;10.15;;
43150;SDS011;28755;51.478;5.702;2023-06-24T06:09:15;14.50;;;9.55;;
43150;SDS011;28755;51.478;5.702;2023-06-24T06:11:40;14.65;;;9.77;;
43150;SDS011;28755;51.478;5.702;2023-06-24T06:14:07;14.85;;;10.00;;
43150;SDS011;28755;51.478;5.702;2023-06-24T06:16:33;11.60;;;8.25;;
43150;SDS011;28755;51.478;5.702;2023-06-24T06:18:58;14.57;;;8.85;;
43150;SDS011;28755;51.478;5.702;2023-06-24T06:21:24;10.27;;;8.35;;
43150;SDS011;28755;51.478;5.702;2023-06-24T06:23:50;10.98;;;7.60;;
43150;SDS011;28755;51.478;5.702;2023-06-24T06:26:15;13.30;;;7.95;;
43150;SDS011;28755;51.478;5.702;2023-06-24T06:28:41;11.05;;;8.00;;
43150;SDS011;28755;51.478;5.702;2023-06-24T06:31:06;15.93;;;7.50;;
43150;SDS011;28755;51.478;5.702;2023-06-24T06:33:32;9.20;;;6.97;;
43150;SDS011;28755;51.478;5.702;2023-06-24T06:35:58;11.48;;;7.13;;
43150;SDS011;28755;51.478;5.702;2023-06-24T06:38:24;8.45;;;6.28;;
43150;SDS011;28755;51.478;5.702;2023-06-24T06:40:49;10.75;;;6.65;;
43150;SDS011;28755;51.478;5.702;2023-06-24T06:43:15;9.25;;;6.15;;
43150;SDS011;28755;51.478;5.702;2023-06-24T06:45:41;9.65;;;6.63;;
43150;SDS011;28755;51.478;5.702;2023-06-24T06:48:06;11.80;;;5.57;;
43150;SDS011;28755;51.478;5.702;2023-06-24T06:50:33;7.55;;;6.20;;
43150;SDS011;28755;51.478;5.702;2023-06-24T06:52:59;8.20;;;5.60;;
43150;SDS011;28755;51.478;5.702;2023-06-24T06:55:25;8.63;;;5.20;;
43150;SDS011;28755;51.478;5.702;2023-06-24T06:57:52;6.20;;;4.78;;
43150;SDS011;28755;51.478;5.702;2023-06-24T07:00:18;5.65;;;4.30;;
43150;SDS011;28755;51.478;5.702;2023-06-24T07:02:44;13.10;;;4.80;;
43150;SDS011;28755;51.478;5.702;2023-06-24T07:05:09;6.45;;;3.70;;
43150;SDS011;28755;51.478;5.702;2023-06-24T07:07:36;4.28;;;3.15;;
43150;SDS011;28755;51.478;5.702;2023-06-24T07:10:03;4.65;;;3.35;;
43150;SDS011;28755;51.478;5.702;2023-06-24T07:12:29;8.57;;;3.28;;
43150;SDS011;28755;51.478;5.702;2023-06-24T07:14:55;3.75;;;2.72;;
43150;SDS011;28755;51.478;5.702;2023-06-24T07:17:21;8.27;;;3.47;;
43150;SDS011;28755;51.478;5.702;2023-06-24T07:19:47;7.63;;;2.95;;
43150;SDS011;28755;51.478;5.702;2023-06-24T07:22:13;5.15;;;3.17;;
43150;SDS011;28755;51.478;5.702;2023-06-24T07:24:39;4.47;;;3.00;;
43150;SDS011;28755;51.478;5.702;2023-06-24T07:27:04;4.35;;;2.88;;
43150;SDS011;28755;51.478;5.702;2023-06-24T07:29:30;3.22;;;2.60;;
43150;SDS011;28755;51.478;5.702;2023-06-24T07:31:56;5.63;;;3.00;;
43150;SDS011;28755;51.478;5.702;2023-06-24T07:34:22;5.07;;;2.95;;
43150;SDS011;28755;51.478;5.702;2023-06-24T07:36:47;4.80;;;2.50;;
43150;SDS011;28755;51.478;5.702;2023-06-24T07:39:13;4.03;;;2.65;;
43150;SDS011;28755;51.478;5.702;2023-06-24T07:41:38;10.32;;;3.05;;
43150;SDS011;28755;51.478;5.702;2023-06-24T07:44:05;7.78;;;3.00;;
43150;SDS011;28755;51.478;5.702;2023-06-24T07:46:30;3.35;;;2.35;;
43150;SDS011;28755;51.478;5.702;2023-06-24T07:48:56;5.55;;;2.55;;
43150;SDS011;28755;51.478;5.702;2023-06-24T07:51:22;4.40;;;3.05;;
43150;SDS011;28755;51.478;5.702;2023-06-24T07:53:47;4.20;;;2.80;;
43150;SDS011;28755;51.478;5.702;2023-06-24T07:56:13;4.80;;;2.40;;
43150;SDS011;28755;51.478;5.702;2023-06-24T07:58:38;4.90;;;2.58;;
43150;SDS011;28755;51.478;5.702;2023-06-24T08:01:04;4.40;;;2.70;;
43150;SDS011;28755;51.478;5.702;2023-06-24T08:03:30;3.80;;;2.60;;
43150;SDS011;28755;51.478;5.702;2023-06-24T08:05:55;6.38;;;2.50;;
43150;SDS011;28755;51.478;5.702;2023-06-24T08:08:21;5.43;;;2.40;;
43150;SDS011;28755;51.478;5.702;2023-06-24T08:10:47;3.00;;;2.20;;
43150;SDS011;28755;51.478;5.702;2023-06-24T08:13:13;3.50;;;2.20;;
43150;SDS011;28755;51.478;5.702;2023-06-24T08:15:38;5.40;;;2.20;;
43150;SDS011;28755;51.478;5.702;2023-06-24T08:18:04;6.03;;;2.65;;
43150;SDS011;28755;51.478;5.702;2023-06-24T08:20:29;2.88;;;2.38;;
43150;SDS011;28755;51.478;5.702;2023-06-24T08:22:55;2.88;;;2.35;;
43150;SDS011;28755;51.478;5.702;2023-06-24T08:25:21;5.88;;;2.17;;
43150;SDS011;28755;51.478;5.702;2023-06-24T08:27:47;4.20;;;2.13;;
43150;SDS011;28755;51.478;5.702;2023-06-24T08:30:13;4.18;;;2.17;;
43150;SDS011;28755;51.478;5.702;2023-06-24T08:32:40;3.65;;;2.20;;
43150;SDS011;28755;51.478;5.702;2023-06-24T08:35:06;5.07;;;2.03;;
43150;SDS011;28755;51.478;5.702;2023-06-24T08:37:33;4.63;;;2.20;;
43150;SDS011;28755;51.478;5.702;2023-06-24T08:39:59;4.47;;;2.35;;
43150;SDS011;28755;51.478;5.702;2023-06-24T08:42:24;4.93;;;2.47;;
43150;SDS011;28755;51.478;5.702;2023-06-24T08:44:50;2.47;;;2.05;;
43150;SDS011;28755;51.478;5.702;2023-06-24T08:47:15;2.60;;;1.90;;
43150;SDS011;28755;51.478;5.702;2023-06-24T08:49:44;2.22;;;1.98;;
43150;SDS011;28755;51.478;5.702;2023-06-24T08:52:14;3.15;;;2.20;;
43150;SDS011;28755;51.478;5.702;2023-06-24T08:54:41;2.47;;;1.80;;
43150;SDS011;28755;51.478;5.702;2023-06-24T08:57:09;2.90;;;1.90;;
43150;SDS011;28755;51.478;5.702;2023-06-24T08:59:39;3.03;;;2.30;;
43150;SDS011;28755;51.478;5.702;2023-06-24T09:02:06;3.13;;;1.90;;
43150;SDS011;28755;51.478;5.702;2023-06-24T09:04:32;3.78;;;2.05;;
43150;SDS011;28755;51.478;5.702;2023-06-24T09:06:57;3.10;;;2.35;;
43150;SDS011;28755;51.478;5.702;2023-06-24T09:09:23;3.00;;;2.40;;
43150;SDS011;28755;51.478;5.702;2023-06-24T09:11:56;3.33;;;2.25;;
43150;SDS011;28755;51.478;5.702;2023-06-24T09:14:26;2.35;;;1.90;;
43150;SDS011;28755;51.478;5.702;2023-06-24T09:16:54;3.83;;;2.47;;
43150;SDS011;28755;51.478;5.702;2023-06-24T09:19:25;3.45;;;2.22;;
43150;SDS011;28755;51.478;5.702;2023-06-24T09:22:04;3.33;;;2.25;;
43150;SDS011;28755;51.478;5.702;2023-06-24T09:24:32;2.80;;;2.13;;
43150;SDS011;28755;51.478;5.702;2023-06-24T09:26:58;2.83;;;2.13;;
43150;SDS011;28755;51.478;5.702;2023-06-24T09:29:28;3.20;;;2.08;;
43150;SDS011;28755;51.478;5.702;2023-06-24T09:31:57;3.25;;;2.30;;
43150;SDS011;28755;51.478;5.702;2023-06-24T09:34:25;3.50;;;2.20;;
43150;SDS011;28755;51.478;5.702;2023-06-24T09:36:52;5.28;;;2.40;;
43150;SDS011;28755;51.478;5.702;2023-06-24T09:39:19;3.00;;;2.28;;
43150;SDS011;28755;51.478;5.702;2023-06-24T09:41:50;3.03;;;2.38;;
43150;SDS011;28755;51.478;5.702;2023-06-24T09:44:16;3.13;;;2.10;;
43150;SDS011;28755;51.478;5.702;2023-06-24T09:46:44;4.18;;;2.13;;
43150;SDS011;28755;51.478;5.702;2023-06-24T09:49:10;5.60;;;2.20;;
43150;SDS011;28755;51.478;5.702;2023-06-24T09:51:39;2.95;;;2.08;;
43150;SDS011;28755;51.478;5.702;2023-06-24T09:54:09;2.83;;;2.10;;
43150;SDS011;28755;51.478;5.702;2023-06-24T09:56:36;3.17;;;2.40;;
43150;SDS011;28755;51.478;5.702;2023-06-24T09:59:04;4.00;;;2.13;;
43150;SDS011;28755;51.478;5.702;2023-06-24T10:01:31;3.08;;;2.00;;
43150;SDS011;28755;51.478;5.702;2023-06-24T10:03:57;2.80;;;2.20;;
43150;SDS011;28755;51.478;5.702;2023-06-24T10:06:24;2.75;;;2.28;;
43150;SDS011;28755;51.478;5.702;2023-06-24T10:08:50;3.00;;;2.28;;
43150;SDS011;28755;51.478;5.702;2023-06-24T10:11:17;3.35;;;1.90;;
43150;SDS011;28755;51.478;5.702;2023-06-24T10:13:43;3.95;;;2.15;;
43150;SDS011;28755;51.478;5.702;2023-06-24T10:16:08;3.47;;;2.20;;
43150;SDS011;28755;51.478;5.702;2023-06-24T10:18:35;2.95;;;1.85;;
43150;SDS011;28755;51.478;5.702;2023-06-24T10:21:02;3.05;;;2.15;;
43150;SDS011;28755;51.478;5.702;2023-06-24T10:23:33;4.28;;;2.10;;
43150;SDS011;28755;51.478;5.702;2023-06-24T10:26:09;2.92;;;2.20;;
43150;SDS011;28755;51.478;5.702;2023-06-24T10:36:52;5.35;;;1.90;;
43150;SDS011;28755;51.478;5.702;2023-06-24T10:39:34;2.88;;;1.70;;
43150;SDS011;28755;51.478;5.702;2023-06-24T10:44:51;4.00;;;2.15;;
43150;SDS011;28755;51.478;5.702;2023-06-24T10:47:18;3.03;;;1.90;;
43150;SDS011;28755;51.478;5.702;2023-06-24T10:49:44;2.40;;;1.60;;
43150;SDS011;28755;51.478;5.702;2023-06-24T10:52:10;5.30;;;2.00;;
43150;SDS011;28755;51.478;5.702;2023-06-24T10:54:37;2.20;;;1.60;;
43150;SDS011;28755;51.478;5.702;2023-06-24T10:57:06;2.88;;;1.60;;
43150;SDS011;28755;51.478;5.702;2023-06-24T10:59:39;4.45;;;1.90;;
43150;SDS011;28755;51.478;5.702;2023-06-24T11:02:05;2.47;;;2.03;;
43150;SDS011;28755;51.478;5.702;2023-06-24T11:04:32;5.07;;;1.95;;
43150;SDS011;28755;51.478;5.702;2023-06-24T11:06:58;5.22;;;1.90;;
43150;SDS011;28755;51.478;5.702;2023-06-24T11:09:24;2.47;;;1.90;;
43150;SDS011;28755;51.478;5.702;2023-06-24T11:11:50;2.60;;;1.80;;
43150;SDS011;28755;51.478;5.702;2023-06-24T11:14:16;3.38;;;2.10;;
43150;SDS011;28755;51.478;5.702;2023-06-24T11:16:41;3.10;;;2.05;;
43150;SDS011;28755;51.478;5.702;2023-06-24T11:19:08;4.35;;;1.80;;
43150;SDS011;28755;51.478;5.702;2023-06-24T11:21:33;3.80;;;1.85;;
43150;SDS011;28755;51.478;5.702;2023-06-24T11:24:02;1.83;;;1.63;;
43150;SDS011;28755;51.478;5.702;2023-06-24T11:26:28;3.22;;;2.00;;
43150;SDS011;28755;51.478;5.702;2023-06-24T11:28:54;4.57;;;1.85;;
43150;SDS011;28755;51.478;5.702;2023-06-24T11:31:23;5.82;;;1.98;;
43150;SDS011;28755;51.478;5.702;2023-06-24T11:33:52;3.00;;;1.90;;
43150;SDS011;28755;51.478;5.702;2023-06-24T11:36:21;3.55;;;2.47;;
43150;SDS011;28755;51.478;5.702;2023-06-24T11:41:13;3.30;;;2.22;;
43150;SDS011;28755;51.478;5.702;2023-06-24T11:43:45;4.18;;;2.20;;
43150;SDS011;28755;51.478;5.702;2023-06-24T11:46:24;4.85;;;1.83;;
43150;SDS011;28755;51.478;5.702;2023-06-24T11:51:16;3.90;;;2.15;;
43150;SDS011;28755;51.478;5.702;2023-06-24T11:53:42;4.10;;;2.10;;
43150;SDS011;28755;51.478;5.702;2023-06-24T11:56:09;3.55;;;2.40;;
43150;SDS011;28755;51.478;5.702;2023-06-24T11:58:35;5.53;;;2.55;;
43150;SDS011;28755;51.478;5.702;2023-06-24T12:01:01;3.00;;;2.20;;
43150;SDS011;28755;51.478;5.702;2023-06-24T12:03:27;3.00;;;2.20;;
43150;SDS011;28755;51.478;5.702;2023-06-24T12:05:54;3.95;;;2.40;;
43150;SDS011;28755;51.478;5.702;2023-06-24T12:08:20;3.70;;;2.35;;
43150;SDS011;28755;51.478;5.702;2023-06-24T12:10:47;3.05;;;2.20;;
43150;SDS011;28755;51.478;5.702;2023-06-24T12:13:13;4.03;;;2.33;;
43150;SDS011;28755;51.478;5.702;2023-06-24T12:15:39;4.10;;;2.60;;
43150;SDS011;28755;51.478;5.702;2023-06-24T12:18:05;3.80;;;2.38;;
43150;SDS011;28755;51.478;5.702;2023-06-24T12:20:31;6.97;;;2.38;;
43150;SDS011;28755;51.478;5.702;2023-06-24T12:22:58;3.80;;;2.25;;
43150;SDS011;28755;51.478;5.702;2023-06-24T12:25:23;2.88;;;2.22;;
43150;SDS011;28755;51.478;5.702;2023-06-24T12:27:49;3.35;;;2.10;;
43150;SDS011;28755;51.478;5.702;2023-06-24T12:30:15;3.70;;;2.20;;
43150;SDS011;28755;51.478;5.702;2023-06-24T12:32:41;6.32;;;2.10;;
43150;SDS011;28755;51.478;5.702;2023-06-24T12:35:07;5.85;;;2.50;;
43150;SDS011;28755;51.478;5.702;2023-06-24T12:37:35;4.70;;;2.33;;
43150;SDS011;28755;51.478;5.702;2023-06-24T12:40:02;3.75;;;2.47;;
43150;SDS011;28755;51.478;5.702;2023-06-24T12:42:28;3.55;;;2.47;;
43150;SDS011;28755;51.478;5.702;2023-06-24T12:44:54;3.72;;;2.38;;
43150;SDS011;28755;51.478;5.702;2023-06-24T12:47:20;4.28;;;2.53;;
43150;SDS011;28755;51.478;5.702;2023-06-24T12:49:46;4.90;;;2.40;;
43150;SDS011;28755;51.478;5.702;2023-06-24T12:52:12;4.30;;;2.58;;
43150;SDS011;28755;51.478;5.702;2023-06-24T12:54:38;3.78;;;2.40;;
43150;SDS011;28755;51.478;5.702;2023-06-24T12:57:04;4.85;;;2.60;;
43150;SDS011;28755;51.478;5.702;2023-06-24T12:59:30;3.95;;;3.00;;
43150;SDS011;28755;51.478;5.702;2023-06-24T13:01:55;3.53;;;2.45;;
43150;SDS011;28755;51.478;5.702;2023-06-24T13:04:21;3.28;;;2.30;;
43150;SDS011;28755;51.478;5.702;2023-06-24T13:06:49;5.22;;;2.08;;
43150;SDS011;28755;51.478;5.702;2023-06-24T13:09:18;3.28;;;2.50;;
43150;SDS011;28755;51.478;5.702;2023-06-24T13:11:44;3.53;;;2.53;;
43150;SDS011;28755;51.478;5.702;2023-06-24T13:14:10;3.17;;;2.30;;
43150;SDS011;28755;51.478;5.702;2023-06-24T13:16:36;5.50;;;2.75;;
43150;SDS011;28755;51.478;5.702;2023-06-24T13:19:02;3.85;;;2.60;;
43150;SDS011;28755;51.478;5.702;2023-06-24T13:21:27;3.95;;;2.83;;
43150;SDS011;28755;51.478;5.702;2023-06-24T13:23:53;3.55;;;2.60;;
43150;SDS011;28755;51.478;5.702;2023-06-24T13:26:18;4.35;;;2.63;;
43150;SDS011;28755;51.478;5.702;2023-06-24T13:28:44;4.85;;;2.70;;
43150;SDS011;28755;51.478;5.702;2023-06-24T13:31:10;3.85;;;2.58;;
43150;SDS011;28755;51.478;5.702;2023-06-24T13:33:36;3.70;;;2.55;;
43150;SDS011;28755;51.478;5.702;2023-06-24T13:36:01;2.78;;;2.45;;
43150;SDS011;28755;51.478;5.702;2023-06-24T13:38:28;3.83;;;2.60;;
43150;SDS011;28755;51.478;5.702;2023-06-24T13:40:55;4.25;;;2.75;;
43150;SDS011;28755;51.478;5.702;2023-06-24T13:43:21;8.82;;;2.72;;
43150;SDS011;28755;51.478;5.702;2023-06-24T13:45:46;3.65;;;2.45;;
43150;SDS011;28755;51.478;5.702;2023-06-24T13:48:12;4.03;;;2.50;;
43150;SDS011;28755;51.478;5.702;2023-06-24T13:50:37;5.32;;;2.60;;
43150;SDS011;28755;51.478;5.702;2023-06-24T13:53:03;5.45;;;2.80;;
43150;SDS011;28755;51.478;5.702;2023-06-24T13:55:28;4.00;;;2.67;;
43150;SDS011;28755;51.478;5.702;2023-06-24T13:57:54;3.28;;;2.47;;
43150;SDS011;28755;51.478;5.702;2023-06-24T14:00:19;4.07;;;2.30;;
43150;SDS011;28755;51.478;5.702;2023-06-24T14:02:45;6.47;;;2.90;;
43150;SDS011;28755;51.478;5.702;2023-06-24T14:05:11;7.13;;;2.60;;
43150;SDS011;28755;51.478;5.702;2023-06-24T14:07:36;4.07;;;2.80;;
43150;SDS011;28755;51.478;5.702;2023-06-24T14:10:02;3.33;;;2.45;;
43150;SDS011;28755;51.478;5.702;2023-06-24T14:12:28;3.22;;;2.72;;
43150;SDS011;28755;51.478;5.702;2023-06-24T14:14:53;4.72;;;2.83;;
43150;SDS011;28755;51.478;5.702;2023-06-24T14:17:19;3.75;;;2.60;;
43150;SDS011;28755;51.478;5.702;2023-06-24T14:19:44;3.90;;;2.90;;
43150;SDS011;28755;51.478;5.702;2023-06-24T14:22:11;3.13;;;2.30;;
43150;SDS011;28755;51.478;5.702;2023-06-24T14:24:37;3.25;;;2.30;;
43150;SDS011;28755;51.478;5.702;2023-06-24T14:27:03;3.53;;;2.40;;
43150;SDS011;28755;51.478;5.702;2023-06-24T14:29:32;3.40;;;2.53;;
43150;SDS011;28755;51.478;5.702;2023-06-24T14:31:57;3.58;;;2.53;;
43150;SDS011;28755;51.478;5.702;2023-06-24T14:34:23;5.45;;;3.13;;
43150;SDS011;28755;51.478;5.702;2023-06-24T14:36:48;4.05;;;2.60;;
43150;SDS011;28755;51.478;5.702;2023-06-24T14:39:14;3.10;;;2.60;;
43150;SDS011;28755;51.478;5.702;2023-06-24T14:41:43;6.68;;;2.80;;
43150;SDS011;28755;51.478;5.702;2023-06-24T14:44:09;3.63;;;2.60;;
43150;SDS011;28755;51.478;5.702;2023-06-24T14:46:35;4.25;;;2.70;;
43150;SDS011;28755;51.478;5.702;2023-06-24T14:49:01;5.82;;;2.80;;
43150;SDS011;28755;51.478;5.702;2023-06-24T14:51:27;5.20;;;2.55;;
43150;SDS011;28755;51.478;5.702;2023-06-24T14:53:52;4.03;;;2.70;;
43150;SDS011;28755;51.478;5.702;2023-06-24T14:56:18;3.67;;;3.10;;